Time;durP1;ratioP1;P1;durP2;ratioP2;P2;SDS_P1;SDS_P2;PMS_P1;PMS_P2;Temp;Humidity;BMP_temperature;BMP_pressure;BME280_temperature;BME280_humidity;BME280_pressure;Samples;Min_cycle;Max_cycle;Signal;HPM_P1;HPM_P2
2021/06/29 00:00:55;;;;;;;5.57;4.70;;;;;;;19.47;99.58;100966.00;6246683;28;20076;-74
2021/06/29 00:03:56;;;;;;;5.63;4.78;;;;;;;19.44;100.00;100961.78;6246400;28;20512;-73
2021/06/29 00:06:57;;;;;;;6.00;4.95;;;;;;;19.42;100.00;100955.72;6246860;28;20050;-74
2021/06/29 00:09:59;;;;;;;6.70;4.95;;;;;;;19.38;100.00;100953.47;6253070;28;20413;-74
2021/06/29 00:13:00;;;;;;;5.82;4.82;;;;;;;19.34;100.00;100955.53;6254904;28;20488;-74
2021/06/29 00:16:03;;;;;;;6.82;4.85;;;;;;;19.38;100.00;100948.97;6254860;28;20049;-74
2021/06/29 00:19:05;;;;;;;6.30;4.82;;;;;;;19.37;100.00;100949.97;6254118;28;20049;-74
2021/06/29 00:22:07;;;;;;;7.63;4.70;;;;;;;19.40;100.00;100949.69;6254708;28;20526;-73
2021/06/29 00:25:11;;;;;;;11.38;4.78;;;;;;;19.39;100.00;100937.31;6254544;28;20132;-73
2021/06/29 00:28:14;;;;;;;5.35;4.35;;;;;;;19.39;100.00;100929.34;6254524;28;20060;-73
2021/06/29 00:31:17;;;;;;;6.28;4.80;;;;;;;19.42;100.00;100930.91;6254534;28;20057;-74
2021/06/29 00:34:19;;;;;;;5.30;4.80;;;;;;;19.43;100.00;100928.09;6254998;28;20080;-73
2021/06/29 00:37:20;;;;;;;5.15;4.63;;;;;;;19.46;100.00;100930.50;6254505;28;20069;-74
2021/06/29 00:40:21;;;;;;;11.10;4.90;;;;;;;19.45;100.00;100931.47;6254376;28;20052;-74
2021/06/29 00:43:23;;;;;;;5.85;5.00;;;;;;;19.45;100.00;100934.16;6254472;28;20049;-74
2021/06/29 00:46:25;;;;;;;7.97;5.03;;;;;;;19.48;100.00;100938.34;6254449;28;20049;-74
2021/06/29 00:49:27;;;;;;;5.57;4.75;;;;;;;19.48;100.00;100936.56;6254207;28;20045;-74
2021/06/29 00:52:29;;;;;;;7.22;5.03;;;;;;;19.44;100.00;100942.25;6254279;28;20046;-74
2021/06/29 00:55:31;;;;;;;8.85;5.18;;;;;;;19.38;100.00;100935.66;6254506;28;20057;-73
2021/06/29 00:58:32;;;;;;;8.48;5.15;;;;;;;19.42;100.00;100941.56;6254189;28;20049;-74
2021/06/29 01:01:35;;;;;;;6.22;4.80;;;;;;;19.49;100.00;100953.38;6254387;28;20061;-73
2021/06/29 01:04:38;;;;;;;6.43;4.97;;;;;;;19.54;100.00;100955.66;6254087;28;20049;-73
2021/06/29 01:07:40;;;;;;;6.18;5.25;;;;;;;19.52;100.00;100963.75;6253970;28;20124;-73
2021/06/29 01:10:42;;;;;;;11.27;5.45;;;;;;;19.51;100.00;100957.59;6253938;28;20519;-74
2021/06/29 01:13:45;;;;;;;8.77;5.43;;;;;;;19.51;100.00;100951.41;6254265;28;20061;-74
2021/06/29 01:16:48;;;;;;;6.20;5.60;;;;;;;19.44;100.00;100958.25;6253986;28;20412;-73
2021/06/29 01:19:51;;;;;;;6.55;4.97;;;;;;;19.38;100.00;100962.31;6251959;28;20049;-73
2021/06/29 01:22:56;;;;;;;8.38;5.95;;;;;;;19.38;100.00;100959.63;6250484;28;20049;-73
2021/06/29 01:26:07;;;;;;;11.05;5.65;;;;;;;19.39;100.00;100955.97;6250293;28;20049;-73
2021/06/29 01:29:08;;;;;;;6.90;5.80;;;;;;;19.42;100.00;100958.41;6249946;28;20068;-74
2021/06/29 01:32:12;;;;;;;7.82;5.80;;;;;;;19.42;100.00;100962.88;6249887;28;20060;-73
2021/06/29 01:35:14;;;;;;;6.68;5.95;;;;;;;19.43;100.00;100959.22;6249804;28;20421;-73
2021/06/29 01:38:20;;;;;;;6.80;5.35;;;;;;;19.44;100.00;100956.47;6249406;28;20049;-73
2021/06/29 01:41:23;;;;;;;5.93;5.03;;;;;;;19.44;100.00;100950.25;6249856;28;20123;-73
2021/06/29 01:44:27;;;;;;;6.25;5.05;;;;;;;19.45;100.00;100954.63;6249617;28;20084;-73
2021/06/29 01:47:35;;;;;;;6.22;5.25;;;;;;;19.41;100.00;100955.88;6249698;28;20053;-73
2021/06/29 01:50:37;;;;;;;7.60;5.65;;;;;;;19.43;100.00;100962.75;6249364;28;20085;-74
2021/06/29 01:53:40;;;;;;;5.88;5.05;;;;;;;19.43;100.00;100960.06;6249525;28;20041;-74
2021/06/29 01:56:43;;;;;;;6.55;5.55;;;;;;;19.46;100.00;100958.97;6249532;28;20053;-73
2021/06/29 01:59:47;;;;;;;6.75;4.93;;;;;;;19.40;100.00;100963.03;6249230;28;20432;-74
2021/06/29 02:02:48;;;;;;;8.45;4.93;;;;;;;19.41;100.00;100964.72;6249251;28;20504;-74
2021/06/29 02:05:50;;;;;;;5.88;4.65;;;;;;;19.42;100.00;100971.72;6233893;28;20046;-73
2021/06/29 02:08:52;;;;;;;5.20;4.70;;;;;;;19.41;99.70;100978.03;6235995;28;20501;-74
2021/06/29 02:11:54;;;;;;;7.47;4.88;;;;;;;19.42;98.76;100981.53;6249314;28;20060;-73
2021/06/29 02:14:55;;;;;;;5.13;4.00;;;;;;;19.39;99.13;100985.31;6248826;28;20064;-73
2021/06/29 02:17:56;;;;;;;7.63;4.72;;;;;;;19.40;99.18;100994.16;6248563;28;20054;-73
2021/06/29 02:20:58;;;;;;;7.45;4.85;;;;;;;19.38;98.56;100988.13;6248950;28;20045;-74
2021/06/29 02:24:01;;;;;;;7.97;4.93;;;;;;;19.38;98.45;100988.13;6248634;28;20053;-74
2021/06/29 02:27:02;;;;;;;7.38;4.75;;;;;;;19.35;98.39;100985.69;6236127;28;20061;-74
2021/06/29 02:30:05;;;;;;;8.50;4.88;;;;;;;19.36;99.13;100982.94;6247765;28;20131;-74
2021/06/29 02:33:07;;;;;;;5.97;4.53;;;;;;;19.42;99.08;100981.53;6247363;28;20408;-74
2021/06/29 02:36:08;;;;;;;9.85;5.40;;;;;;;19.35;100.00;100980.38;6248492;28;20057;-73
2021/06/29 02:39:11;;;;;;;8.98;5.03;;;;;;;19.38;100.00;100985.44;6248488;28;20509;-74
2021/06/29 02:42:13;;;;;;;10.48;5.68;;;;;;;19.33;99.99;100974.34;6248215;28;20050;-74
2021/06/29 02:45:17;;;;;;;13.07;4.93;;;;;;;19.32;100.00;100975.31;6248454;28;20061;-74
2021/06/29 02:48:19;;;;;;;9.45;4.80;;;;;;;19.27;100.00;100963.25;6247902;28;20531;-74
2021/06/29 02:51:20;;;;;;;7.10;4.57;;;;;;;19.25;100.00;100954.53;6248133;28;20056;-74
2021/06/29 02:54:23;;;;;;;6.95;4.70;;;;;;;19.26;100.00;100961.56;6248087;28;20049;-74
2021/06/29 02:57:24;;;;;;;7.38;4.68;;;;;;;19.23;100.00;100952.97;6248020;28;20397;-73
2021/06/29 03:00:26;;;;;;;8.10;5.53;;;;;;;19.26;100.00;100950.06;6247824;28;20057;-74
2021/06/29 03:03:27;;;;;;;8.50;4.47;;;;;;;19.24;100.00;100936.84;6247625;28;20052;-74
2021/06/29 03:06:28;;;;;;;10.15;5.15;;;;;;;19.28;100.00;100937.44;6247920;28;20050;-74
2021/06/29 03:09:31;;;;;;;8.27;4.70;;;;;;;19.21;100.00;100934.47;6247340;28;20517;-74
2021/06/29 03:12:32;;;;;;;8.35;4.90;;;;;;;19.27;100.00;100946.41;6247939;28;20049;-74
2021/06/29 03:15:34;;;;;;;8.38;4.47;;;;;;;19.24;100.00;100950.16;6247464;28;20049;-74
2021/06/29 03:18:35;;;;;;;6.28;4.53;;;;;;;19.21;100.00;100947.78;6247300;28;20060;-74
2021/06/29 03:21:37;;;;;;;6.22;3.90;;;;;;;19.24;100.00;100944.84;6247397;28;20049;-73
2021/06/29 03:24:40;;;;;;;6.45;4.40;;;;;;;19.21;100.00;100947.78;6247516;28;20045;-73
2021/06/29 03:27:41;;;;;;;8.73;4.60;;;;;;;19.22;100.00;100957.47;6247349;28;20511;-74
2021/06/29 03:30:43;;;;;;;13.77;4.70;;;;;;;19.25;100.00;100959.00;6239356;28;20045;-74
2021/06/29 03:33:45;;;;;;;8.63;4.63;;;;;;;19.28;100.00;100956.09;6222851;28;20045;-73
2021/06/29 03:36:46;;;;;;;8.85;4.28;;;;;;;19.29;100.00;100954.25;6222251;28;20058;-74
2021/06/29 03:39:49;;;;;;;5.97;4.25;;;;;;;19.31;100.00;100952.31;6222529;28;20056;-73
2021/06/29 03:42:50;;;;;;;7.28;4.35;;;;;;;19.32;100.00;100956.69;6221907;28;20042;-73
2021/06/29 03:45:52;;;;;;;9.93;4.55;;;;;;;19.29;100.00;100963.09;6222582;28;20054;-73
2021/06/29 03:48:53;;;;;;;7.90;4.30;;;;;;;19.32;100.00;100975.31;6222120;28;20413;-73
2021/06/29 03:51:55;;;;;;;11.35;4.10;;;;;;;19.34;100.00;100965.38;6222699;28;20053;-74
2021/06/29 03:54:58;;;;;;;16.27;4.00;;;;;;;19.35;100.00;100970.59;6222444;28;20128;-73
2021/06/29 03:57:59;;;;;;;15.30;4.53;;;;;;;19.38;100.00;100974.78;6222280;28;20129;-73
2021/06/29 04:01:00;;;;;;;9.57;4.00;;;;;;;19.40;100.00;100964.84;6220563;28;20528;-73
2021/06/29 04:04:02;;;;;;;9.15;4.32;;;;;;;19.35;100.00;100967.91;6220432;28;20045;-72
2021/06/29 04:07:07;;;;;;;14.63;4.47;;;;;;;19.35;100.00;100972.38;6220618;28;20049;-75
2021/06/29 04:10:10;;;;;;;16.65;4.65;;;;;;;19.33;100.00;100966.34;6220260;28;20065;-71
2021/06/29 04:13:11;;;;;;;9.07;4.03;;;;;;;19.36;100.00;100982.94;6222122;28;20053;-74
2021/06/29 04:16:13;;;;;;;12.02;4.40;;;;;;;19.39;100.00;100976.47;6222085;28;20060;-73
2021/06/29 04:19:14;;;;;;;10.77;4.63;;;;;;;19.40;100.00;100979.03;6221600;28;20532;-72
2021/06/29 04:22:16;;;;;;;7.03;4.03;;;;;;;19.39;100.00;100971.97;6221912;28;20057;-73
2021/06/29 04:25:18;;;;;;;17.98;6.35;;;;;;;19.41;100.00;100977.19;6222170;28;20421;-73
2021/06/29 04:28:20;;;;;;;12.57;4.75;;;;;;;19.42;100.00;100982.38;6221704;28;20524;-73
2021/06/29 04:31:21;;;;;;;12.07;4.78;;;;;;;19.43;100.00;100981.41;6221999;28;20053;-72
2021/06/29 04:34:23;;;;;;;12.32;4.30;;;;;;;19.41;100.00;100978.03;6222017;28;20058;-72
2021/06/29 04:37:24;;;;;;;11.05;4.68;;;;;;;19.43;100.00;100977.91;6221087;28;20412;-73
2021/06/29 04:40:27;;;;;;;13.13;4.80;;;;;;;19.45;100.00;100978.63;6220095;28;20053;-73
2021/06/29 04:43:28;;;;;;;11.05;4.85;;;;;;;19.43;100.00;100983.22;6217245;28;20056;-73
2021/06/29 04:46:30;;;;;;;16.35;5.20;;;;;;;19.41;100.00;100986.03;6219872;28;20057;-73
2021/06/29 04:49:32;;;;;;;28.40;6.20;;;;;;;19.22;100.00;100977.94;6218336;28;20042;-72
2021/06/29 04:52:33;;;;;;;16.40;5.95;;;;;;;18.97;100.00;100971.19;6220146;28;20128;-72
2021/06/29 04:55:36;;;;;;;11.18;5.80;;;;;;;18.82;100.00;100965.34;6221346;28;20053;-72
2021/06/29 04:58:37;;;;;;;13.93;6.50;;;;;;;18.77;100.00;100962.25;6224361;28;20042;-72
2021/06/29 05:01:39;;;;;;;6.80;5.53;;;;;;;18.73;100.00;100956.31;6225814;28;20406;-72
2021/06/29 05:04:41;;;;;;;12.75;6.47;;;;;;;18.71;100.00;100955.63;6225881;28;20092;-72
2021/06/29 05:07:42;;;;;;;8.25;6.10;;;;;;;18.68;100.00;100937.19;6236151;23;20609;-70
2021/06/29 05:10:45;;;;;;;10.13;6.80;;;;;;;18.61;100.00;100938.69;6223813;28;20572;-71
2021/06/29 05:13:46;;;;;;;8.32;6.75;;;;;;;18.64;100.00;100934.94;6225969;28;20053;-70
2021/06/29 05:16:47;;;;;;;13.77;6.53;;;;;;;18.52;100.00;100929.66;6205332;28;20050;-71
2021/06/29 05:19:49;;;;;;;10.15;7.35;;;;;;;18.51;100.00;100935.09;6201224;28;20053;-70
2021/06/29 05:22:51;;;;;;;14.18;7.97;;;;;;;18.57;100.00;100925.75;6201268;28;20484;-71
2021/06/29 05:25:53;;;;;;;9.63;6.90;;;;;;;18.48;100.00;100914.91;6200992;28;20144;-70
2021/06/29 05:28:55;;;;;;;15.65;7.63;;;;;;;18.43;100.00;100913.59;6200901;28;20047;-70
2021/06/29 05:31:56;;;;;;;15.13;7.55;;;;;;;18.45;100.00;100911.69;6201228;28;20050;-71
2021/06/29 05:34:57;;;;;;;12.82;7.38;;;;;;;18.43;100.00;100914.44;6201034;28;20050;-71
2021/06/29 05:38:00;;;;;;;13.15;6.50;;;;;;;18.32;100.00;100908.34;6200845;28;20418;-70
2021/06/29 05:41:03;;;;;;;17.95;6.60;;;;;;;18.33;100.00;100912.69;6200574;28;20054;-70
2021/06/29 05:44:04;;;;;;;10.98;7.80;;;;;;;18.38;100.00;100916.66;6201007;28;20046;-70
2021/06/29 05:47:08;;;;;;;10.88;7.93;;;;;;;18.44;100.00;100915.28;6200696;28;20047;-70
2021/06/29 05:50:11;;;;;;;9.75;8.13;;;;;;;18.44;100.00;100910.84;6200357;28;20054;-70
2021/06/29 05:53:12;;;;;;;12.60;8.52;;;;;;;18.48;100.00;100911.41;6200601;28;20052;-70
2021/06/29 05:56:15;;;;;;;9.35;7.07;;;;;;;18.50;100.00;100907.66;6200176;28;20426;-70
2021/06/29 05:59:16;;;;;;;14.50;8.23;;;;;;;18.55;100.00;100920.56;6206109;28;20062;-71
2021/06/29 06:02:18;;;;;;;10.02;8.82;;;;;;;18.61;100.00;100911.22;6223848;28;20054;-71
2021/06/29 06:05:19;;;;;;;12.60;8.60;;;;;;;18.57;100.00;100905.31;6224698;28;20615;-70
2021/06/29 06:08:21;;;;;;;13.80;8.13;;;;;;;18.50;100.00;100905.00;6223312;28;20366;-71
2021/06/29 06:11:23;;;;;;;13.63;8.65;;;;;;;18.49;100.00;100897.16;6223935;28;20060;-71
2021/06/29 06:14:24;;;;;;;14.02;7.90;;;;;;;18.48;100.00;100895.44;6222621;28;20042;-71
2021/06/29 06:17:27;;;;;;;12.73;7.47;;;;;;;18.52;100.00;100891.53;6222854;28;20049;-71
2021/06/29 06:20:28;;;;;;;12.27;8.88;;;;;;;18.60;100.00;100902.38;6221825;28;20157;-70
2021/06/29 06:23:30;;;;;;;11.05;7.97;;;;;;;18.66;100.00;100895.69;6222356;28;20050;-71
2021/06/29 06:26:32;;;;;;;12.77;7.97;;;;;;;18.67;100.00;100902.72;6222614;28;20421;-71
2021/06/29 06:29:34;;;;;;;9.05;7.28;;;;;;;18.72;100.00;100900.56;6221579;28;20074;-71
2021/06/29 06:32:35;;;;;;;10.20;7.13;;;;;;;18.73;100.00;100904.91;6222436;28;20053;-71
2021/06/29 06:35:37;;;;;;;11.70;8.02;;;;;;;18.71;100.00;100904.16;6222040;28;20041;-71
2021/06/29 06:38:38;;;;;;;11.48;8.30;;;;;;;18.71;100.00;100906.81;6222453;28;20054;-71
2021/06/29 06:41:41;;;;;;;14.40;8.02;;;;;;;18.73;100.00;100905.75;6223504;28;20490;-72
2021/06/29 06:44:42;;;;;;;13.75;8.63;;;;;;;18.84;100.00;100906.63;6223815;28;20082;-71
2021/06/29 06:47:44;;;;;;;14.05;8.02;;;;;;;18.93;100.00;100897.84;6223666;28;20057;-72
2021/06/29 06:50:45;;;;;;;9.13;7.82;;;;;;;18.89;100.00;100897.25;6222685;28;20050;-72
2021/06/29 06:53:47;;;;;;;11.63;8.13;;;;;;;18.94;100.00;100902.19;6223419;28;20053;-71
2021/06/29 06:56:50;;;;;;;13.02;9.32;;;;;;;19.01;100.00;100901.53;6223485;28;20054;-71
2021/06/29 06:59:51;;;;;;;10.10;8.13;;;;;;;18.99;100.00;100897.34;6222594;28;20046;-71
2021/06/29 07:02:54;;;;;;;12.30;8.90;;;;;;;18.99;100.00;100908.84;6222953;28;20053;-71
2021/06/29 07:05:55;;;;;;;12.90;8.88;;;;;;;19.05;100.00;100914.59;6223088;28;20050;-71
2021/06/29 07:08:56;;;;;;;10.57;8.30;;;;;;;19.11;100.00;100930.06;6222342;28;20050;-71
2021/06/29 07:12:01;;;;;;;12.77;7.50;;;;;;;19.11;100.00;100925.56;6223062;28;20053;-72
2021/06/29 07:15:03;;;;;;;13.90;8.18;;;;;;;19.09;100.00;100916.88;6222961;28;20058;-72
2021/06/29 07:18:05;;;;;;;10.75;8.57;;;;;;;19.11;100.00;100916.72;6222316;28;20057;-71
2021/06/29 07:21:06;;;;;;;10.63;8.50;;;;;;;19.10;100.00;100920.38;6222142;28;20050;-71
2021/06/29 07:24:08;;;;;;;11.10;9.35;;;;;;;19.18;100.00;100921.41;6222650;28;20048;-71
2021/06/29 07:27:12;;;;;;;12.13;9.75;;;;;;;19.27;100.00;100917.94;6222643;28;20049;-71
2021/06/29 07:30:14;;;;;;;16.10;10.93;;;;;;;19.36;100.00;100923.44;6221990;28;20046;-71
2021/06/29 07:33:16;;;;;;;20.50;10.60;;;;;;;19.42;100.00;100929.06;6222406;28;20056;-71
2021/06/29 07:36:18;;;;;;;27.50;11.48;;;;;;;19.50;100.00;100921.25;6222290;28;20489;-72
2021/06/29 07:39:19;;;;;;;22.52;12.02;;;;;;;19.55;100.00;100915.50;6221911;28;20049;-72
2021/06/29 07:42:22;;;;;;;16.45;10.93;;;;;;;19.58;100.00;100914.41;6222076;28;20053;-71
2021/06/29 07:45:25;;;;;;;12.65;9.60;;;;;;;19.61;100.00;100915.00;6222380;28;20050;-72
2021/06/29 07:48:27;;;;;;;14.02;9.55;;;;;;;19.60;100.00;100909.78;6221819;28;20409;-72
2021/06/29 07:51:28;;;;;;;11.20;8.95;;;;;;;19.56;100.00;100919.84;6221793;28;20520;-72
2021/06/29 07:54:29;;;;;;;10.10;8.13;;;;;;;19.51;100.00;100928.25;6222232;28;20050;-72
2021/06/29 07:57:33;;;;;;;14.43;9.70;;;;;;;19.44;100.00;100924.47;6222123;28;20053;-72
2021/06/29 08:00:35;;;;;;;13.15;9.32;;;;;;;19.48;100.00;100914.34;6222009;28;20053;-72
2021/06/29 08:03:37;;;;;;;13.15;10.50;;;;;;;19.56;100.00;100913.69;6221657;28;20050;-72
2021/06/29 08:06:38;;;;;;;13.90;10.48;;;;;;;19.66;100.00;100919.91;6221049;28;20049;-72
2021/06/29 08:09:40;;;;;;;12.10;10.85;;;;;;;19.73;100.00;100911.25;6221536;28;20038;-72
2021/06/29 08:12:43;;;;;;;16.48;11.57;;;;;;;19.80;100.00;100913.34;6221864;28;20080;-72
2021/06/29 08:15:45;;;;;;;16.00;10.77;;;;;;;19.87;100.00;100906.50;6221603;28;20053;-71
2021/06/29 08:18:46;;;;;;;13.52;10.75;;;;;;;19.93;100.00;100912.09;6221842;28;20049;-72
2021/06/29 08:21:47;;;;;;;13.50;10.68;;;;;;;19.94;100.00;100923.63;6220593;28;20421;-72
2021/06/29 08:24:49;;;;;;;19.05;10.52;;;;;;;19.97;100.00;100910.84;6206210;28;20046;-72
2021/06/29 08:27:52;;;;;;;15.82;9.55;;;;;;;19.93;100.00;100912.09;6218965;28;20041;-72
2021/06/29 08:30:54;;;;;;;14.02;8.77;;;;;;;19.94;100.00;100919.16;6224969;28;20060;-72
2021/06/29 08:33:55;;;;;;;16.20;9.35;;;;;;;19.91;100.00;100923.91;6226899;28;20501;-73
2021/06/29 08:36:58;;;;;;;8.85;7.35;;;;;;;19.92;100.00;100922.94;6226510;28;20053;-73
2021/06/29 08:39:59;;;;;;;9.55;8.00;;;;;;;19.92;100.00;100936.28;6226244;28;20085;-73
2021/06/29 08:43:02;;;;;;;12.02;9.15;;;;;;;20.00;100.00;100921.25;6226728;28;20045;-73
2021/06/29 08:46:04;;;;;;;13.23;9.10;;;;;;;20.02;100.00;100924.63;6226366;28;20050;-73
2021/06/29 08:49:05;;;;;;;10.95;9.15;;;;;;;20.00;100.00;100920.41;6225987;28;20061;-71
2021/06/29 08:52:09;;;;;;;14.05;9.48;;;;;;;19.95;100.00;100923.50;6226178;28;20050;-73
2021/06/29 08:55:13;;;;;;;11.13;9.65;;;;;;;19.91;100.00;100922.09;6224436;28;20046;-71
2021/06/29 08:58:18;;;;;;;9.48;8.50;;;;;;;19.96;100.00;100917.19;6203727;28;20046;-72
2021/06/29 09:01:19;;;;;;;14.73;10.73;;;;;;;20.00;100.00;100907.09;6218888;28;20046;-73
2021/06/29 09:04:45;;;;;;;11.75;9.82;;;;;;;20.06;100.00;100895.84;6225882;28;20053;-72
2021/06/29 09:07:48;;;;;;;11.82;10.35;;;;;;;20.11;100.00;100904.25;6225698;28;20425;-73
2021/06/29 09:11:12;;;;;;;16.65;10.35;;;;;;;20.14;100.00;100898.66;6225516;28;20046;-73
2021/06/29 09:14:16;;;;;;;12.85;11.52;;;;;;;20.18;100.00;100896.56;6225374;28;20540;-73
2021/06/29 09:17:18;;;;;;;15.52;11.88;;;;;;;20.15;100.00;100900.34;6223747;28;20048;-72
2021/06/29 09:20:26;;;;;;;13.70;11.90;;;;;;;20.14;100.00;100903.16;6224143;28;20046;-73
2021/06/29 09:23:29;;;;;;;16.77;11.98;;;;;;;20.12;100.00;100900.63;6224371;28;20667;-73
2021/06/29 09:26:31;;;;;;;15.35;11.05;;;;;;;20.06;100.00;100905.69;6225510;28;20421;-73
2021/06/29 09:29:39;;;;;;;13.05;10.63;;;;;;;20.00;100.00;100904.41;6224612;28;20429;-70
2021/06/29 09:32:40;;;;;;;13.02;11.73;;;;;;;19.98;100.00;100903.69;6201055;28;20050;-73
2021/06/29 09:35:43;;;;;;;12.75;11.48;;;;;;;19.98;100.00;100901.91;6220772;28;20042;-72
2021/06/29 09:38:46;;;;;;;13.88;12.48;;;;;;;19.91;100.00;100903.41;6224719;28;20061;-71
2021/06/29 09:41:47;;;;;;;14.55;11.43;;;;;;;19.85;100.00;100906.66;6224112;28;20050;-74
2021/06/29 09:44:50;;;;;;;13.15;11.10;;;;;;;19.82;100.00;100904.25;6224834;28;20046;-70
2021/06/29 09:47:51;;;;;;;18.65;11.23;;;;;;;19.86;100.00;100903.00;6224942;28;20045;-71
2021/06/29 09:50:54;;;;;;;13.05;10.73;;;;;;;19.85;100.00;100892.44;6223935;28;20387;-73
2021/06/29 09:53:58;;;;;;;12.45;10.80;;;;;;;19.83;100.00;100900.59;6224979;28;20425;-73
2021/06/29 09:56:59;;;;;;;12.85;11.48;;;;;;;19.79;100.00;100891.19;6224492;28;20052;-73
2021/06/29 10:00:02;;;;;;;14.95;11.98;;;;;;;19.80;100.00;100889.34;6223891;28;20128;-73
2021/06/29 10:03:15;;;;;;;13.30;11.50;;;;;;;19.79;100.00;100890.34;6224572;28;20054;-71
2021/06/29 10:06:18;;;;;;;18.92;12.75;;;;;;;19.79;100.00;100885.84;6221739;28;20053;-73
2021/06/29 10:09:19;;;;;;;15.43;11.82;;;;;;;19.83;100.00;100878.41;6223326;28;20512;-70
2021/06/29 10:12:25;;;;;;;14.30;10.75;;;;;;;19.88;100.00;100876.16;6224281;28;20057;-71
2021/06/29 10:15:28;;;;;;;14.23;10.77;;;;;;;19.91;100.00;100884.75;6223215;28;20111;-71
2021/06/29 10:18:31;;;;;;;12.20;10.95;;;;;;;19.98;100.00;100883.22;6224320;28;20050;-71
2021/06/29 10:21:33;;;;;;;11.68;10.00;;;;;;;19.98;100.00;100883.22;6223380;28;20053;-71
2021/06/29 10:24:37;;;;;;;15.10;9.35;;;;;;;19.95;100.00;100891.50;6224137;28;20052;-71
2021/06/29 10:27:39;;;;;;;12.00;8.95;;;;;;;19.92;100.00;100894.44;6223623;28;20049;-71
2021/06/29 10:30:42;;;;;;;13.02;9.20;;;;;;;19.94;100.00;100894.28;6214976;28;20421;-71
2021/06/29 10:33:43;;;;;;;12.05;9.23;;;;;;;19.85;100.00;100879.97;6203475;28;20045;-71
2021/06/29 10:36:47;;;;;;;17.40;10.68;;;;;;;19.87;100.00;100886.00;6222781;28;20129;-70
2021/06/29 10:39:48;;;;;;;10.95;9.35;;;;;;;19.89;100.00;100881.34;6214106;28;20057;-71
2021/06/29 10:42:50;;;;;;;12.02;9.38;;;;;;;19.87;100.00;100872.66;6222043;28;20061;-70
2021/06/29 10:45:53;;;;;;;11.32;9.40;;;;;;;19.90;100.00;100872.41;6223445;28;20497;-70
2021/06/29 10:48:55;;;;;;;10.30;8.50;;;;;;;19.92;100.00;100865.09;6222019;28;20060;-71
2021/06/29 10:51:57;;;;;;;10.40;9.32;;;;;;;19.92;100.00;100858.91;6223334;28;20045;-71
2021/06/29 10:55:01;;;;;;;12.68;9.88;;;;;;;19.96;100.00;100865.66;6222926;28;20558;-71
2021/06/29 10:58:03;;;;;;;12.70;9.25;;;;;;;19.96;100.00;100855.81;6221964;28;20085;-71
2021/06/29 11:01:28;;;;;;;13.27;9.73;;;;;;;19.98;100.00;100847.66;6223141;28;20149;-71
2021/06/29 11:04:52;;;;;;;10.90;9.50;;;;;;;20.02;100.00;100862.41;6223219;28;20486;-71
2021/06/29 11:08:05;;;;;;;10.57;8.98;;;;;;;20.01;100.00;100856.25;6221612;28;20147;-72
2021/06/29 11:11:09;;;;;;;10.27;9.00;;;;;;;20.08;100.00;100858.38;6219533;28;20129;-71
2021/06/29 11:14:28;;;;;;;15.25;8.90;;;;;;;20.15;100.00;100852.31;6221484;28;20061;-72
2021/06/29 11:17:59;;;;;;;20.35;10.05;;;;;;;20.25;100.00;100855.81;6219397;28;20049;-71
2021/06/29 11:21:02;;;;;;;13.25;8.40;;;;;;;20.41;100.00;100857.06;6326583;22;20052;-73
2021/06/29 11:24:38;;;;;;;9.82;8.38;;;;;;;20.54;100.00;100851.47;6317674;28;20092;-74
2021/06/29 11:28:03;;;;;;;9.70;7.75;;;;;;;20.62;100.00;100848.91;6318459;28;20052;-73
2021/06/29 11:31:08;;;;;;;8.52;7.38;;;;;;;20.69;100.00;100845.50;6297074;28;20052;-73
2021/06/29 11:34:15;;;;;;;7.30;6.18;;;;;;;20.72;100.00;100839.88;6294483;28;20048;-73
2021/06/29 11:37:16;;;;;;;6.35;4.97;;;;;;;20.73;100.00;100841.56;6296995;28;20404;-73
2021/06/29 11:40:30;;;;;;;8.00;6.50;;;;;;;20.77;100.00;100832.28;6296641;28;20052;-74
2021/06/29 11:43:32;;;;;;;9.48;6.38;;;;;;;20.83;100.00;100833.50;6297036;28;20098;-74
2021/06/29 11:46:50;;;;;;;7.13;5.35;;;;;;;20.87;100.00;100818.03;6297246;28;20415;-73
2021/06/29 11:49:59;;;;;;;6.03;5.23;;;;;;;20.93;100.00;100825.47;6296877;28;20427;-74
2021/06/29 11:53:01;;;;;;;;;;;;;;;20.96;100.00;100833.19;6297723;28;20139;-74
2021/06/29 11:56:03;;;;;;;7.80;6.45;;;;;;;21.05;100.00;100836.81;6297001;28;19928;-74
2021/06/29 11:59:04;;;;;;;8.52;5.50;;;;;;;21.18;100.00;100823.97;6297175;28;20055;-74
2021/06/29 12:02:07;;;;;;;4.40;4.00;;;;;;;21.33;100.00;100817.13;6299712;28;20053;-74
2021/06/29 12:05:16;;;;;;;3.85;3.55;;;;;;;21.43;100.00;100809.88;6299240;28;20048;-74
2021/06/29 12:08:18;;;;;;;6.30;3.13;;;;;;;22.01;100.00;100800.59;6298410;28;20177;-74
2021/06/29 12:11:19;;;;;;;4.72;2.80;;;;;;;22.28;100.00;100794.31;6296771;28;20045;-74
2021/06/29 12:14:21;;;;;;;3.60;1.75;;;;;;;22.44;100.00;100802.47;6296912;28;20048;-73
2021/06/29 12:17:22;;;;;;;7.45;1.75;;;;;;;22.73;99.25;100790.56;6295709;28;20048;-74
2021/06/29 12:20:27;;;;;;;2.88;1.85;;;;;;;22.88;98.29;100782.75;6296326;28;20044;-74
2021/06/29 12:23:30;;;;;;;3.05;1.63;;;;;;;23.34;97.77;100775.22;6293858;28;20045;-74
2021/06/29 12:26:32;;;;;;;1.98;1.52;;;;;;;23.90;88.10;100769.13;6296413;28;20049;-74
2021/06/29 12:29:36;;;;;;;2.00;1.55;;;;;;;24.18;88.56;100764.25;6295737;28;20123;-74
2021/06/29 12:32:43;;;;;;;6.60;2.00;;;;;;;24.10;92.43;100758.03;6296009;28;20052;-74
2021/06/29 12:35:48;;;;;;;4.30;1.50;;;;;;;24.05;83.94;100745.97;6293543;28;20044;-74
2021/06/29 12:38:52;;;;;;;3.72;1.90;;;;;;;24.22;86.11;100752.16;6293339;28;20438;-73
2021/06/29 12:41:53;;;;;;;3.08;1.40;;;;;;;24.17;82.52;100742.94;6295272;28;20053;-73
2021/06/29 12:44:55;;;;;;;4.18;1.40;;;;;;;24.34;87.60;100739.19;6296242;28;20048;-74
2021/06/29 12:48:05;;;;;;;1.90;1.58;;;;;;;24.62;85.51;100730.75;6296557;28;20051;-74
2021/06/29 12:51:10;;;;;;;3.17;1.40;;;;;;;24.97;84.75;100727.56;6296629;28;20056;-74
2021/06/29 12:54:13;;;;;;;1.50;1.27;;;;;;;24.95;81.57;100723.41;6297456;28;20051;-74
2021/06/29 12:57:14;;;;;;;1.30;1.20;;;;;;;25.21;77.21;100712.34;6296405;28;20049;-74
2021/06/29 13:00:16;;;;;;;3.80;1.23;;;;;;;24.99;81.93;100730.09;6296101;28;20048;-73
2021/06/29 13:03:23;;;;;;;3.22;1.30;;;;;;;25.03;82.91;100734.94;6297419;28;20063;-73
2021/06/29 13:06:26;;;;;;;2.10;1.23;;;;;;;24.83;78.18;100732.84;6297976;28;20049;-72
2021/06/29 13:09:32;;;;;;;2.47;1.23;;;;;;;24.65;77.20;100725.03;6296608;28;20060;-74
2021/06/29 13:12:33;;;;;;;1.38;1.27;;;;;;;24.56;79.04;100729.59;6297592;28;20052;-74
2021/06/29 13:15:35;;;;;;;1.60;1.20;;;;;;;24.54;80.36;100727.09;6297105;28;20051;-74
2021/06/29 13:18:37;;;;;;;2.10;1.52;;;;;;;24.55;84.97;100719.88;6298160;28;21521;-73
2021/06/29 13:21:40;;;;;;;2.65;1.40;;;;;;;24.63;82.32;100727.91;6284533;28;20060;-73
2021/06/29 13:24:46;;;;;;;1.80;1.10;;;;;;;24.74;80.52;100716.75;6295583;28;20052;-73
2021/06/29 13:27:47;;;;;;;1.65;1.25;;;;;;;24.85;80.40;100706.66;6291123;28;20041;-73
2021/06/29 13:30:59;;;;;;;2.58;1.17;;;;;;;24.54;80.50;100716.34;6277892;28;20076;-74
2021/06/29 13:34:00;;;;;;;3.60;1.25;;;;;;;24.24;81.20;100719.75;6274915;28;20063;-73
2021/06/29 13:37:20;;;;;;;2.15;1.10;;;;;;;23.97;83.25;100715.59;6275048;28;20052;-73
2021/06/29 13:40:25;;;;;;;3.00;1.00;;;;;;;23.99;81.07;100716.28;6274440;28;20049;-73
2021/06/29 13:43:32;;;;;;;1.80;1.20;;;;;;;23.88;80.78;100717.44;6274832;28;20068;-73
2021/06/29 13:46:34;;;;;;;2.78;1.05;;;;;;;24.08;79.25;100715.25;6274862;28;20056;-75
2021/06/29 13:49:36;;;;;;;3.70;1.20;;;;;;;24.26;79.70;100713.22;6274312;28;20060;-72
2021/06/29 13:52:53;;;;;;;2.40;1.20;;;;;;;24.10;80.77;100705.19;6274473;28;20049;-73
2021/06/29 13:55:56;;;;;;;1.33;1.10;;;;;;;23.91;83.55;100705.56;6274688;28;20048;-74
2021/06/29 13:58:57;;;;;;;3.15;1.58;;;;;;;23.78;79.45;100704.22;6274190;28;20049;-75